sensor_id;sensor_type;location;lat;lon;timestamp;P1;durP1;ratioP1;P2;durP2;ratioP2
84084;SDS011;74175;41.730;44.734;2024-01-25T00:01:46;5.88;;;1.80;;
84084;SDS011;74175;41.730;44.734;2024-01-25T00:04:12;6.82;;;2.28;;
84084;SDS011;74175;41.730;44.734;2024-01-25T00:06:39;6.75;;;2.40;;
84084;SDS011;74175;41.730;44.734;2024-01-25T00:09:05;5.90;;;2.10;;
84084;SDS011;74175;41.730;44.734;2024-01-25T00:11:31;6.60;;;2.17;;
84084;SDS011;74175;41.730;44.734;2024-01-25T00:13:57;7.82;;;2.58;;
84084;SDS011;74175;41.730;44.734;2024-01-25T00:16:24;6.70;;;2.20;;
84084;SDS011;74175;41.730;44.734;2024-01-25T00:18:50;5.65;;;2.00;;
84084;SDS011;74175;41.730;44.734;2024-01-25T00:21:16;5.32;;;1.90;;
84084;SDS011;74175;41.730;44.734;2024-01-25T00:23:42;6.63;;;2.20;;
84084;SDS011;74175;41.730;44.734;2024-01-25T00:26:09;6.32;;;2.00;;
84084;SDS011;74175;41.730;44.734;2024-01-25T00:28:35;6.10;;;2.00;;
84084;SDS011;74175;41.730;44.734;2024-01-25T00:31:01;6.50;;;2.20;;
84084;SDS011;74175;41.730;44.734;2024-01-25T00:33:27;8.35;;;2.92;;
84084;SDS011;74175;41.730;44.734;2024-01-25T00:35:53;5.97;;;2.03;;
84084;SDS011;74175;41.730;44.734;2024-01-25T00:38:19;6.50;;;2.00;;
84084;SDS011;74175;41.730;44.734;2024-01-25T00:40:46;6.10;;;1.70;;
84084;SDS011;74175;41.730;44.734;2024-01-25T00:43:12;7.88;;;2.72;;
84084;SDS011;74175;41.730;44.734;2024-01-25T00:45:41;8.07;;;2.85;;
84084;SDS011;74175;41.730;44.734;2024-01-25T00:48:07;7.60;;;2.67;;
84084;SDS011;74175;41.730;44.734;2024-01-25T00:50:34;6.63;;;2.10;;
84084;SDS011;74175;41.730;44.734;2024-01-25T00:53:00;8.85;;;2.75;;
84084;SDS011;74175;41.730;44.734;2024-01-25T00:55:26;8.07;;;3.13;;
84084;SDS011;74175;41.730;44.734;2024-01-25T00:57:53;8.50;;;3.10;;
84084;SDS011;74175;41.730;44.734;2024-01-25T01:00:20;8.95;;;2.78;;
84084;SDS011;74175;41.730;44.734;2024-01-25T01:02:46;7.05;;;2.30;;
84084;SDS011;74175;41.730;44.734;2024-01-25T01:05:14;8.88;;;3.40;;
84084;SDS011;74175;41.730;44.734;2024-01-25T01:07:40;9.85;;;3.20;;
84084;SDS011;74175;41.730;44.734;2024-01-25T01:10:07;8.67;;;2.57;;
84084;SDS011;74175;41.730;44.734;2024-01-25T01:12:34;8.27;;;2.83;;
84084;SDS011;74175;41.730;44.734;2024-01-25T01:15:01;8.23;;;2.90;;
84084;SDS011;74175;41.730;44.734;2024-01-25T01:17:29;11.20;;;3.90;;
84084;SDS011;74175;41.730;44.734;2024-01-25T01:19:55;9.25;;;3.58;;
84084;SDS011;74175;41.730;44.734;2024-01-25T01:22:21;11.82;;;4.00;;
84084;SDS011;74175;41.730;44.734;2024-01-25T01:24:47;10.37;;;3.43;;
84084;SDS011;74175;41.730;44.734;2024-01-25T01:27:13;9.13;;;3.28;;
84084;SDS011;74175;41.730;44.734;2024-01-25T01:29:39;10.30;;;3.33;;
84084;SDS011;74175;41.730;44.734;2024-01-25T01:32:06;7.90;;;3.00;;
84084;SDS011;74175;41.730;44.734;2024-01-25T01:34:32;9.43;;;3.40;;
84084;SDS011;74175;41.730;44.734;2024-01-25T01:36:59;11.45;;;3.47;;
84084;SDS011;74175;41.730;44.734;2024-01-25T01:39:25;10.02;;;3.42;;
84084;SDS011;74175;41.730;44.734;2024-01-25T01:41:51;8.10;;;2.40;;
84084;SDS011;74175;41.730;44.734;2024-01-25T01:44:17;8.95;;;3.13;;
84084;SDS011;74175;41.730;44.734;2024-01-25T01:46:43;8.77;;;2.30;;
84084;SDS011;74175;41.730;44.734;2024-01-25T01:49:13;9.40;;;2.90;;
84084;SDS011;74175;41.730;44.734;2024-01-25T01:51:41;9.27;;;3.47;;
84084;SDS011;74175;41.730;44.734;2024-01-25T01:54:10;10.35;;;3.17;;
84084;SDS011;74175;41.730;44.734;2024-01-25T01:56:36;12.70;;;4.10;;
84084;SDS011;74175;41.730;44.734;2024-01-25T01:59:06;11.88;;;4.03;;
84084;SDS011;74175;41.730;44.734;2024-01-25T02:01:34;8.27;;;2.85;;
84084;SDS011;74175;41.730;44.734;2024-01-25T02:04:00;8.80;;;2.97;;
84084;SDS011;74175;41.730;44.734;2024-01-25T02:06:26;9.85;;;3.15;;
84084;SDS011;74175;41.730;44.734;2024-01-25T02:08:53;11.63;;;3.42;;
84084;SDS011;74175;41.730;44.734;2024-01-25T02:11:21;8.87;;;3.40;;
84084;SDS011;74175;41.730;44.734;2024-01-25T02:13:47;11.63;;;3.17;;
84084;SDS011;74175;41.730;44.734;2024-01-25T02:16:14;9.63;;;3.63;;
84084;SDS011;74175;41.730;44.734;2024-01-25T02:18:46;13.18;;;4.43;;
84084;SDS011;74175;41.730;44.734;2024-01-25T02:21:15;11.95;;;3.63;;
84084;SDS011;74175;41.730;44.734;2024-01-25T02:23:41;11.20;;;3.60;;
84084;SDS011;74175;41.730;44.734;2024-01-25T02:26:07;10.27;;;3.15;;
84084;SDS011;74175;41.730;44.734;2024-01-25T02:28:34;12.43;;;3.90;;
84084;SDS011;74175;41.730;44.734;2024-01-25T02:31:01;11.10;;;3.60;;
84084;SDS011;74175;41.730;44.734;2024-01-25T02:33:30;10.82;;;3.38;;
84084;SDS011;74175;41.730;44.734;2024-01-25T02:35:56;12.43;;;3.40;;
84084;SDS011;74175;41.730;44.734;2024-01-25T02:38:23;12.65;;;3.72;;
84084;SDS011;74175;41.730;44.734;2024-01-25T02:40:51;10.97;;;3.63;;
84084;SDS011;74175;41.730;44.734;2024-01-25T02:43:19;15.93;;;4.60;;
84084;SDS011;74175;41.730;44.734;2024-01-25T02:48:44;14.40;;;5.07;;
84084;SDS011;74175;41.730;44.734;2024-01-25T02:51:10;12.88;;;4.35;;
84084;SDS011;74175;41.730;44.734;2024-01-25T02:53:36;12.30;;;4.38;;
84084;SDS011;74175;41.730;44.734;2024-01-25T02:56:02;12.53;;;4.47;;
84084;SDS011;74175;41.730;44.734;2024-01-25T02:58:28;14.95;;;5.07;;
84084;SDS011;74175;41.730;44.734;2024-01-25T03:00:54;13.70;;;4.63;;
84084;SDS011;74175;41.730;44.734;2024-01-25T03:03:21;15.05;;;4.68;;
84084;SDS011;74175;41.730;44.734;2024-01-25T03:05:49;11.93;;;4.53;;
84084;SDS011;74175;41.730;44.734;2024-01-25T03:08:18;12.93;;;4.75;;
84084;SDS011;74175;41.730;44.734;2024-01-25T03:10:44;11.13;;;3.90;;
84084;SDS011;74175;41.730;44.734;2024-01-25T03:13:10;14.27;;;4.75;;
84084;SDS011;74175;41.730;44.734;2024-01-25T03:15:36;14.88;;;4.90;;
84084;SDS011;74175;41.730;44.734;2024-01-25T03:18:02;13.23;;;3.92;;
84084;SDS011;74175;41.730;44.734;2024-01-25T03:20:29;10.25;;;3.33;;
84084;SDS011;74175;41.730;44.734;2024-01-25T03:22:55;11.57;;;4.15;;
84084;SDS011;74175;41.730;44.734;2024-01-25T03:25:21;10.87;;;4.40;;
84084;SDS011;74175;41.730;44.734;2024-01-25T03:27:47;10.17;;;3.30;;
84084;SDS011;74175;41.730;44.734;2024-01-25T03:30:13;11.73;;;4.40;;
84084;SDS011;74175;41.730;44.734;2024-01-25T03:32:40;12.45;;;4.20;;
84084;SDS011;74175;41.730;44.734;2024-01-25T03:35:07;14.70;;;5.03;;
84084;SDS011;74175;41.730;44.734;2024-01-25T03:37:34;12.13;;;4.32;;
84084;SDS011;74175;41.730;44.734;2024-01-25T03:40:00;11.47;;;4.13;;
84084;SDS011;74175;41.730;44.734;2024-01-25T03:42:26;11.23;;;3.92;;
84084;SDS011;74175;41.730;44.734;2024-01-25T03:44:52;12.93;;;4.70;;
84084;SDS011;74175;41.730;44.734;2024-01-25T03:47:18;13.55;;;5.25;;
84084;SDS011;74175;41.730;44.734;2024-01-25T03:49:45;12.80;;;4.53;;
84084;SDS011;74175;41.730;44.734;2024-01-25T03:52:11;10.30;;;3.75;;
84084;SDS011;74175;41.730;44.734;2024-01-25T03:54:37;15.90;;;5.63;;
84084;SDS011;74175;41.730;44.734;2024-01-25T03:57:03;10.47;;;4.07;;
84084;SDS011;74175;41.730;44.734;2024-01-25T03:59:30;9.98;;;3.85;;
84084;SDS011;74175;41.730;44.734;2024-01-25T04:01:56;11.50;;;4.70;;
84084;SDS011;74175;41.730;44.734;2024-01-25T04:04:23;10.10;;;3.42;;
84084;SDS011;74175;41.730;44.734;2024-01-25T04:06:49;9.38;;;3.53;;
84084;SDS011;74175;41.730;44.734;2024-01-25T04:09:16;8.60;;;3.35;;
84084;SDS011;74175;41.730;44.734;2024-01-25T04:11:43;9.07;;;3.17;;
84084;SDS011;74175;41.730;44.734;2024-01-25T04:14:09;11.02;;;4.10;;
84084;SDS011;74175;41.730;44.734;2024-01-25T04:16:35;11.73;;;4.82;;
84084;SDS011;74175;41.730;44.734;2024-01-25T04:19:01;11.35;;;4.32;;
84084;SDS011;74175;41.730;44.734;2024-01-25T04:21:28;7.82;;;2.40;;
84084;SDS011;74175;41.730;44.734;2024-01-25T04:23:54;7.80;;;2.38;;
84084;SDS011;74175;41.730;44.734;2024-01-25T04:26:23;7.20;;;2.63;;
84084;SDS011;74175;41.730;44.734;2024-01-25T04:28:49;9.03;;;3.40;;
84084;SDS011;74175;41.730;44.734;2024-01-25T04:31:15;9.20;;;3.28;;
84084;SDS011;74175;41.730;44.734;2024-01-25T04:33:41;10.23;;;3.20;;
84084;SDS011;74175;41.730;44.734;2024-01-25T04:36:08;11.27;;;3.93;;
84084;SDS011;74175;41.730;44.734;2024-01-25T04:38:34;10.20;;;3.67;;
84084;SDS011;74175;41.730;44.734;2024-01-25T04:41:00;12.73;;;4.43;;
84084;SDS011;74175;41.730;44.734;2024-01-25T04:43:26;9.82;;;3.58;;
84084;SDS011;74175;41.730;44.734;2024-01-25T04:45:52;10.63;;;3.97;;
84084;SDS011;74175;41.730;44.734;2024-01-25T04:48:18;11.43;;;4.22;;
84084;SDS011;74175;41.730;44.734;2024-01-25T04:50:44;8.70;;;3.00;;
84084;SDS011;74175;41.730;44.734;2024-01-25T04:53:10;9.98;;;3.83;;
84084;SDS011;74175;41.730;44.734;2024-01-25T04:55:37;10.23;;;3.75;;
84084;SDS011;74175;41.730;44.734;2024-01-25T04:58:03;7.85;;;2.63;;
84084;SDS011;74175;41.730;44.734;2024-01-25T05:00:29;13.48;;;4.32;;
84084;SDS011;74175;41.730;44.734;2024-01-25T05:02:55;9.93;;;3.15;;
84084;SDS011;74175;41.730;44.734;2024-01-25T05:05:21;9.02;;;2.53;;
84084;SDS011;74175;41.730;44.734;2024-01-25T05:07:48;7.23;;;2.20;;
84084;SDS011;74175;41.730;44.734;2024-01-25T05:10:14;8.27;;;2.72;;
84084;SDS011;74175;41.730;44.734;2024-01-25T05:12:40;8.50;;;3.00;;
84084;SDS011;74175;41.730;44.734;2024-01-25T05:15:06;6.07;;;2.30;;
84084;SDS011;74175;41.730;44.734;2024-01-25T05:17:33;8.07;;;2.67;;
84084;SDS011;74175;41.730;44.734;2024-01-25T05:19:59;7.45;;;3.05;;
84084;SDS011;74175;41.730;44.734;2024-01-25T05:22:25;8.63;;;2.92;;
84084;SDS011;74175;41.730;44.734;2024-01-25T05:24:51;8.33;;;3.00;;
84084;SDS011;74175;41.730;44.734;2024-01-25T05:27:17;7.53;;;2.60;;
84084;SDS011;74175;41.730;44.734;2024-01-25T05:29:44;7.45;;;2.60;;
84084;SDS011;74175;41.730;44.734;2024-01-25T05:32:10;7.40;;;2.10;;
84084;SDS011;74175;41.730;44.734;2024-01-25T05:34:36;7.50;;;2.55;;
84084;SDS011;74175;41.730;44.734;2024-01-25T05:37:02;9.45;;;3.45;;
84084;SDS011;74175;41.730;44.734;2024-01-25T05:39:28;11.73;;;4.07;;
84084;SDS011;74175;41.730;44.734;2024-01-25T05:41:54;10.67;;;4.00;;
84084;SDS011;74175;41.730;44.734;2024-01-25T05:44:20;11.43;;;4.68;;
84084;SDS011;74175;41.730;44.734;2024-01-25T05:46:47;10.18;;;3.90;;
84084;SDS011;74175;41.730;44.734;2024-01-25T05:49:14;16.92;;;4.78;;
84084;SDS011;74175;41.730;44.734;2024-01-25T05:51:40;8.27;;;2.60;;
84084;SDS011;74175;41.730;44.734;2024-01-25T05:54:07;9.98;;;3.67;;
84084;SDS011;74175;41.730;44.734;2024-01-25T05:56:34;8.35;;;2.92;;
84084;SDS011;74175;41.730;44.734;2024-01-25T05:59:00;9.95;;;3.30;;
84084;SDS011;74175;41.730;44.734;2024-01-25T06:01:26;9.20;;;3.22;;
84084;SDS011;74175;41.730;44.734;2024-01-25T06:03:53;9.27;;;3.40;;
84084;SDS011;74175;41.730;44.734;2024-01-25T06:06:19;9.93;;;4.13;;
84084;SDS011;74175;41.730;44.734;2024-01-25T06:08:46;8.75;;;3.67;;
84084;SDS011;74175;41.730;44.734;2024-01-25T06:11:12;10.55;;;4.30;;
84084;SDS011;74175;41.730;44.734;2024-01-25T06:13:38;11.68;;;4.53;;
84084;SDS011;74175;41.730;44.734;2024-01-25T06:16:04;10.53;;;4.33;;
84084;SDS011;74175;41.730;44.734;2024-01-25T06:18:32;9.70;;;3.78;;
84084;SDS011;74175;41.730;44.734;2024-01-25T06:20:58;10.25;;;4.10;;
84084;SDS011;74175;41.730;44.734;2024-01-25T06:23:24;11.13;;;4.00;;
84084;SDS011;74175;41.730;44.734;2024-01-25T06:25:50;10.20;;;4.28;;
84084;SDS011;74175;41.730;44.734;2024-01-25T06:28:17;11.52;;;4.05;;
84084;SDS011;74175;41.730;44.734;2024-01-25T06:30:43;14.20;;;5.23;;
84084;SDS011;74175;41.730;44.734;2024-01-25T06:33:09;14.93;;;5.43;;
84084;SDS011;74175;41.730;44.734;2024-01-25T06:35:35;12.63;;;5.55;;
84084;SDS011;74175;41.730;44.734;2024-01-25T06:38:02;11.07;;;3.83;;
84084;SDS011;74175;41.730;44.734;2024-01-25T06:40:28;10.35;;;3.97;;
84084;SDS011;74175;41.730;44.734;2024-01-25T06:42:54;12.55;;;4.65;;
84084;SDS011;74175;41.730;44.734;2024-01-25T06:45:20;11.13;;;4.53;;
84084;SDS011;74175;41.730;44.734;2024-01-25T06:47:47;12.35;;;5.00;;
84084;SDS011;74175;41.730;44.734;2024-01-25T06:50:13;11.02;;;4.30;;
84084;SDS011;74175;41.730;44.734;2024-01-25T06:52:39;10.98;;;4.28;;
84084;SDS011;74175;41.730;44.734;2024-01-25T06:55:05;16.53;;;6.63;;
84084;SDS011;74175;41.730;44.734;2024-01-25T06:57:32;13.15;;;6.30;;
84084;SDS011;74175;41.730;44.734;2024-01-25T06:59:58;14.13;;;5.75;;
84084;SDS011;74175;41.730;44.734;2024-01-25T07:02:24;14.80;;;5.88;;
84084;SDS011;74175;41.730;44.734;2024-01-25T07:04:50;16.42;;;6.65;;
84084;SDS011;74175;41.730;44.734;2024-01-25T07:07:19;20.52;;;9.00;;
84084;SDS011;74175;41.730;44.734;2024-01-25T07:09:45;18.27;;;6.77;;
84084;SDS011;74175;41.730;44.734;2024-01-25T07:12:11;18.58;;;7.18;;
84084;SDS011;74175;41.730;44.734;2024-01-25T07:14:38;20.70;;;7.85;;
84084;SDS011;74175;41.730;44.734;2024-01-25T07:17:05;24.58;;;9.27;;
84084;SDS011;74175;41.730;44.734;2024-01-25T07:19:32;19.02;;;8.02;;
84084;SDS011;74175;41.730;44.734;2024-01-25T07:22:00;17.33;;;6.70;;
84084;SDS011;74175;41.730;44.734;2024-01-25T07:24:26;22.95;;;8.65;;
84084;SDS011;74175;41.730;44.734;2024-01-25T07:26:53;19.40;;;7.63;;
84084;SDS011;74175;41.730;44.734;2024-01-25T07:29:19;15.82;;;7.07;;
84084;SDS011;74175;41.730;44.734;2024-01-25T07:31:45;18.02;;;7.20;;
84084;SDS011;74175;41.730;44.734;2024-01-25T07:34:11;22.55;;;8.45;;
84084;SDS011;74175;41.730;44.734;2024-01-25T07:36:37;17.50;;;6.97;;
84084;SDS011;74175;41.730;44.734;2024-01-25T07:39:03;21.23;;;8.70;;
84084;SDS011;74175;41.730;44.734;2024-01-25T07:41:30;16.87;;;6.67;;
84084;SDS011;74175;41.730;44.734;2024-01-25T07:43:56;21.20;;;8.80;;
84084;SDS011;74175;41.730;44.734;2024-01-25T07:46:22;21.92;;;8.63;;
84084;SDS011;74175;41.730;44.734;2024-01-25T07:48:49;20.65;;;8.75;;
84084;SDS011;74175;41.730;44.734;2024-01-25T07:51:16;20.50;;;8.02;;
84084;SDS011;74175;41.730;44.734;2024-01-25T07:53:42;14.03;;;5.67;;
84084;SDS011;74175;41.730;44.734;2024-01-25T07:56:08;18.70;;;7.28;;
84084;SDS011;74175;41.730;44.734;2024-01-25T07:58:36;15.90;;;6.22;;
84084;SDS011;74175;41.730;44.734;2024-01-25T08:01:05;17.83;;;7.18;;
84084;SDS011;74175;41.730;44.734;2024-01-25T08:03:32;14.40;;;5.97;;
84084;SDS011;74175;41.730;44.734;2024-01-25T08:05:59;16.40;;;6.28;;
84084;SDS011;74175;41.730;44.734;2024-01-25T08:08:28;18.60;;;7.20;;
84084;SDS011;74175;41.730;44.734;2024-01-25T08:10:54;14.47;;;5.37;;
84084;SDS011;74175;41.730;44.734;2024-01-25T08:13:20;15.73;;;6.28;;
84084;SDS011;74175;41.730;44.734;2024-01-25T08:15:46;14.43;;;5.85;;
84084;SDS011;74175;41.730;44.734;2024-01-25T08:18:12;17.75;;;6.07;;
84084;SDS011;74175;41.730;44.734;2024-01-25T08:20:39;14.35;;;5.65;;
84084;SDS011;74175;41.730;44.734;2024-01-25T08:23:05;14.73;;;5.87;;
84084;SDS011;74175;41.730;44.734;2024-01-25T08:25:34;14.30;;;5.85;;
84084;SDS011;74175;41.730;44.734;2024-01-25T08:28:00;14.85;;;5.95;;
84084;SDS011;74175;41.730;44.734;2024-01-25T08:30:26;13.80;;;5.30;;
84084;SDS011;74175;41.730;44.734;2024-01-25T08:32:52;13.63;;;5.53;;
84084;SDS011;74175;41.730;44.734;2024-01-25T08:35:18;15.95;;;6.45;;
84084;SDS011;74175;41.730;44.734;2024-01-25T08:37:44;13.47;;;5.53;;
84084;SDS011;74175;41.730;44.734;2024-01-25T08:40:10;14.82;;;6.25;;
84084;SDS011;74175;41.730;44.734;2024-01-25T08:42:36;12.07;;;4.85;;
84084;SDS011;74175;41.730;44.734;2024-01-25T08:45:03;12.60;;;5.25;;
84084;SDS011;74175;41.730;44.734;2024-01-25T08:47:30;12.40;;;4.75;;
84084;SDS011;74175;41.730;44.734;2024-01-25T08:49:57;12.77;;;4.50;;
84084;SDS011;74175;41.730;44.734;2024-01-25T08:52:23;10.90;;;4.53;;
84084;SDS011;74175;41.730;44.734;2024-01-25T08:54:49;12.80;;;4.47;;
84084;SDS011;74175;41.730;44.734;2024-01-25T08:57:15;10.98;;;3.97;;
84084;SDS011;74175;41.730;44.734;2024-01-25T08:59:42;9.50;;;4.35;;
84084;SDS011;74175;41.730;44.734;2024-01-25T09:02:08;12.95;;;5.65;;
84084;SDS011;74175;41.730;44.734;2024-01-25T09:04:34;13.15;;;5.43;;
84084;SDS011;74175;41.730;44.734;2024-01-25T09:07:01;11.57;;;4.55;;
84084;SDS011;74175;41.730;44.734;2024-01-25T09:09:27;10.82;;;4.18;;
84084;SDS011;74175;41.730;44.734;2024-01-25T09:11:53;12.20;;;5.65;;
84084;SDS011;74175;41.730;44.734;2024-01-25T09:14:19;12.82;;;5.63;;
84084;SDS011;74175;41.730;44.734;2024-01-25T09:16:47;10.63;;;5.18;;
84084;SDS011;74175;41.730;44.734;2024-01-25T09:19:14;10.93;;;5.10;;
84084;SDS011;74175;41.730;44.734;2024-01-25T09:21:40;14.27;;;6.07;;
84084;SDS011;74175;41.730;44.734;2024-01-25T09:24:06;11.77;;;4.70;;
84084;SDS011;74175;41.730;44.734;2024-01-25T09:26:33;10.82;;;5.18;;
84084;SDS011;74175;41.730;44.734;2024-01-25T09:28:59;10.60;;;4.65;;
84084;SDS011;74175;41.730;44.734;2024-01-25T09:31:25;12.90;;;4.70;;
84084;SDS011;74175;41.730;44.734;2024-01-25T09:33:51;11.70;;;5.55;;
84084;SDS011;74175;41.730;44.734;2024-01-25T09:36:17;10.90;;;4.90;;
84084;SDS011;74175;41.730;44.734;2024-01-25T09:38:43;8.47;;;4.13;;
84084;SDS011;74175;41.730;44.734;2024-01-25T09:41:09;10.05;;;4.72;;
84084;SDS011;74175;41.730;44.734;2024-01-25T09:43:35;10.18;;;4.70;;
84084;SDS011;74175;41.730;44.734;2024-01-25T09:46:02;10.50;;;5.00;;
84084;SDS011;74175;41.730;44.734;2024-01-25T09:48:28;10.02;;;4.68;;
84084;SDS011;74175;41.730;44.734;2024-01-25T09:50:55;10.60;;;4.65;;
84084;SDS011;74175;41.730;44.734;2024-01-25T09:53:22;10.88;;;5.20;;
84084;SDS011;74175;41.730;44.734;2024-01-25T09:55:53;8.18;;;3.80;;
84084;SDS011;74175;41.730;44.734;2024-01-25T09:58:24;9.07;;;3.73;;
84084;SDS011;74175;41.730;44.734;2024-01-25T10:00:51;7.40;;;3.42;;
84084;SDS011;74175;41.730;44.734;2024-01-25T10:03:18;8.05;;;3.30;;
84084;SDS011;74175;41.730;44.734;2024-01-25T10:05:44;7.35;;;3.10;;
84084;SDS011;74175;41.730;44.734;2024-01-25T10:08:13;10.27;;;4.22;;
84084;SDS011;74175;41.730;44.734;2024-01-25T10:10:40;9.48;;;4.45;;
84084;SDS011;74175;41.730;44.734;2024-01-25T10:13:06;9.55;;;4.30;;
84084;SDS011;74175;41.730;44.734;2024-01-25T10:15:38;9.10;;;3.92;;
84084;SDS011;74175;41.730;44.734;2024-01-25T10:18:04;8.90;;;4.00;;
84084;SDS011;74175;41.730;44.734;2024-01-25T10:20:31;9.98;;;4.22;;
84084;SDS011;74175;41.730;44.734;2024-01-25T10:22:57;9.88;;;4.00;;
84084;SDS011;74175;41.730;44.734;2024-01-25T10:25:24;8.07;;;3.88;;
84084;SDS011;74175;41.730;44.734;2024-01-25T10:27:50;7.28;;;3.30;;
84084;SDS011;74175;41.730;44.734;2024-01-25T10:30:17;8.68;;;4.32;;
84084;SDS011;74175;41.730;44.734;2024-01-25T10:32:43;9.07;;;4.50;;
84084;SDS011;74175;41.730;44.734;2024-01-25T10:35:11;10.65;;;4.60;;
84084;SDS011;74175;41.730;44.734;2024-01-25T10:37:39;8.20;;;4.07;;
84084;SDS011;74175;41.730;44.734;2024-01-25T10:40:09;9.85;;;4.93;;
84084;SDS011;74175;41.730;44.734;2024-01-25T10:42:35;8.45;;;3.97;;
84084;SDS011;74175;41.730;44.734;2024-01-25T10:45:02;12.23;;;5.75;;
84084;SDS011;74175;41.730;44.734;2024-01-25T10:47:28;7.72;;;4.30;;
84084;SDS011;74175;41.730;44.734;2024-01-25T10:50:00;11.15;;;5.30;;
84084;SDS011;74175;41.730;44.734;2024-01-25T10:52:28;8.57;;;4.30;;
84084;SDS011;74175;41.730;44.734;2024-01-25T10:54:55;7.85;;;4.25;;
84084;SDS011;74175;41.730;44.734;2024-01-25T10:57:21;14.60;;;4.78;;
84084;SDS011;74175;41.730;44.734;2024-01-25T10:59:47;7.10;;;3.80;;
84084;SDS011;74175;41.730;44.734;2024-01-25T11:02:13;9.75;;;4.90;;
84084;SDS011;74175;41.730;44.734;2024-01-25T11:04:39;9.75;;;5.80;;
84084;SDS011;74175;41.730;44.734;2024-01-25T11:07:08;8.60;;;4.78;;
84084;SDS011;74175;41.730;44.734;2024-01-25T11:09:35;7.97;;;5.23;;
84084;SDS011;74175;41.730;44.734;2024-01-25T11:12:09;8.23;;;4.47;;
84084;SDS011;74175;41.730;44.734;2024-01-25T11:14:38;8.00;;;4.40;;
84084;SDS011;74175;41.730;44.734;2024-01-25T11:17:20;9.35;;;5.05;;
84084;SDS011;74175;41.730;44.734;2024-01-25T11:19:50;5.85;;;2.70;;
84084;SDS011;74175;41.730;44.734;2024-01-25T11:22:17;8.93;;;4.43;;
84084;SDS011;74175;41.730;44.734;2024-01-25T11:24:43;8.15;;;3.35;;
84084;SDS011;74175;41.730;44.734;2024-01-25T11:30:19;11.83;;;5.83;;
84084;SDS011;74175;41.730;44.734;2024-01-25T11:32:49;17.50;;;8.32;;
84084;SDS011;74175;41.730;44.734;2024-01-25T11:35:15;8.32;;;3.20;;
84084;SDS011;74175;41.730;44.734;2024-01-25T11:37:43;10.88;;;4.20;;
84084;SDS011;74175;41.730;44.734;2024-01-25T11:40:12;21.73;;;8.90;;
84084;SDS011;74175;41.730;44.734;2024-01-25T11:42:39;15.65;;;7.00;;
84084;SDS011;74175;41.730;44.734;2024-01-25T11:45:07;10.82;;;4.78;;
84084;SDS011;74175;41.730;44.734;2024-01-25T11:47:35;6.20;;;2.53;;
84084;SDS011;74175;41.730;44.734;2024-01-25T11:50:01;5.77;;;2.27;;
84084;SDS011;74175;41.730;44.734;2024-01-25T11:52:28;7.68;;;2.90;;
84084;SDS011;74175;41.730;44.734;2024-01-25T11:54:57;7.93;;;3.22;;
84084;SDS011;74175;41.730;44.734;2024-01-25T11:57:23;12.32;;;5.13;;
84084;SDS011;74175;41.730;44.734;2024-01-25T11:59:49;8.48;;;3.17;;
84084;SDS011;74175;41.730;44.734;2024-01-25T12:02:15;7.77;;;2.20;;
84084;SDS011;74175;41.730;44.734;2024-01-25T12:04:42;7.05;;;2.50;;
84084;SDS011;74175;41.730;44.734;2024-01-25T12:07:08;6.03;;;2.33;;
84084;SDS011;74175;41.730;44.734;2024-01-25T12:09:34;5.47;;;2.38;;
84084;SDS011;74175;41.730;44.734;2024-01-25T12:12:00;7.10;;;2.80;;
84084;SDS011;74175;41.730;44.734;2024-01-25T12:14:27;6.50;;;2.50;;
84084;SDS011;74175;41.730;44.734;2024-01-25T12:16:56;6.82;;;3.05;;
84084;SDS011;74175;41.730;44.734;2024-01-25T12:19:22;6.07;;;2.60;;
84084;SDS011;74175;41.730;44.734;2024-01-25T12:21:48;7.03;;;2.95;;
84084;SDS011;74175;41.730;44.734;2024-01-25T12:24:14;6.35;;;2.47;;
84084;SDS011;74175;41.730;44.734;2024-01-25T12:26:43;6.68;;;2.28;;
84084;SDS011;74175;41.730;44.734;2024-01-25T12:29:10;6.97;;;2.80;;
84084;SDS011;74175;41.730;44.734;2024-01-25T12:31:36;5.57;;;2.03;;
84084;SDS011;74175;41.730;44.734;2024-01-25T12:34:02;7.47;;;3.17;;
84084;SDS011;74175;41.730;44.734;2024-01-25T12:36:29;5.10;;;1.90;;
84084;SDS011;74175;41.730;44.734;2024-01-25T12:38:55;5.25;;;1.77;;
84084;SDS011;74175;41.730;44.734;2024-01-25T12:41:21;12.77;;;5.47;;
84084;SDS011;74175;41.730;44.734;2024-01-25T12:43:47;7.05;;;2.88;;
84084;SDS011;74175;41.730;44.734;2024-01-25T12:46:14;13.43;;;4.78;;
84084;SDS011;74175;41.730;44.734;2024-01-25T12:48:40;8.23;;;3.10;;
84084;SDS011;74175;41.730;44.734;2024-01-25T12:51:06;8.43;;;3.30;;
84084;SDS011;74175;41.730;44.734;2024-01-25T12:53:32;7.03;;;2.47;;
84084;SDS011;74175;41.730;44.734;2024-01-25T12:55:59;8.02;;;3.35;;
84084;SDS011;74175;41.730;44.734;2024-01-25T12:58:25;7.25;;;2.67;;
84084;SDS011;74175;41.730;44.734;2024-01-25T13:00:52;10.00;;;4.03;;
84084;SDS011;74175;41.730;44.734;2024-01-25T13:03:19;7.78;;;3.35;;
84084;SDS011;74175;41.730;44.734;2024-01-25T13:05:45;7.70;;;2.78;;
84084;SDS011;74175;41.730;44.734;2024-01-25T13:08:11;9.65;;;4.00;;
84084;SDS011;74175;41.730;44.734;2024-01-25T13:10:37;6.82;;;2.53;;
84084;SDS011;74175;41.730;44.734;2024-01-25T13:13:03;7.05;;;2.67;;
84084;SDS011;74175;41.730;44.734;2024-01-25T13:15:29;7.17;;;3.13;;
84084;SDS011;74175;41.730;44.734;2024-01-25T13:17:56;6.40;;;2.78;;
84084;SDS011;74175;41.730;44.734;2024-01-25T13:20:23;11.00;;;4.35;;
84084;SDS011;74175;41.730;44.734;2024-01-25T13:22:49;8.88;;;3.50;;
84084;SDS011;74175;41.730;44.734;2024-01-25T13:25:15;9.45;;;3.50;;
84084;SDS011;74175;41.730;44.734;2024-01-25T13:27:41;10.02;;;3.50;;
84084;SDS011;74175;41.730;44.734;2024-01-25T13:30:07;9.45;;;3.72;;
84084;SDS011;74175;41.730;44.734;2024-01-25T13:32:37;8.03;;;3.27;;
84084;SDS011;74175;41.730;44.734;2024-01-25T13:35:03;8.88;;;3.47;;
84084;SDS011;74175;41.730;44.734;2024-01-25T13:37:31;9.38;;;3.75;;
84084;SDS011;74175;41.730;44.734;2024-01-25T13:39:57;9.18;;;3.60;;
84084;SDS011;74175;41.730;44.734;2024-01-25T13:42:24;13.45;;;4.80;;
84084;SDS011;74175;41.730;44.734;2024-01-25T13:44:50;14.45;;;5.30;;
84084;SDS011;74175;41.730;44.734;2024-01-25T13:47:16;11.13;;;4.07;;
84084;SDS011;74175;41.730;44.734;2024-01-25T13:49:43;12.30;;;4.53;;
84084;SDS011;74175;41.730;44.734;2024-01-25T13:52:14;14.35;;;5.60;;
84084;SDS011;74175;41.730;44.734;2024-01-25T13:55:00;13.73;;;5.97;;
84084;SDS011;74175;41.730;44.734;2024-01-25T13:57:26;12.68;;;4.72;;
84084;SDS011;74175;41.730;44.734;2024-01-25T13:59:53;15.18;;;6.55;;
84084;SDS011;74175;41.730;44.734;2024-01-25T14:02:19;14.35;;;5.28;;
84084;SDS011;74175;41.730;44.734;2024-01-25T14:04:45;12.48;;;5.53;;
84084;SDS011;74175;41.730;44.734;2024-01-25T14:07:13;11.03;;;4.30;;
84084;SDS011;74175;41.730;44.734;2024-01-25T14:09:40;14.75;;;6.13;;
84084;SDS011;74175;41.730;44.734;2024-01-25T14:12:08;14.25;;;6.32;;
84084;SDS011;74175;41.730;44.734;2024-01-25T14:14:36;13.95;;;6.00;;
84084;SDS011;74175;41.730;44.734;2024-01-25T14:17:03;15.52;;;6.68;;
84084;SDS011;74175;41.730;44.734;2024-01-25T14:19:29;19.07;;;7.00;;
84084;SDS011;74175;41.730;44.734;2024-01-25T14:21:55;16.97;;;7.30;;
84084;SDS011;74175;41.730;44.734;2024-01-25T14:24:21;16.33;;;7.03;;
84084;SDS011;74175;41.730;44.734;2024-01-25T14:26:47;14.50;;;6.20;;
84084;SDS011;74175;41.730;44.734;2024-01-25T14:29:13;12.23;;;5.72;;
84084;SDS011;74175;41.730;44.734;2024-01-25T14:31:39;16.13;;;6.55;;